Time;durP1;ratioP1;P1;durP2;ratioP2;P2;SDS_P1;SDS_P2;PMS_P1;PMS_P2;Temp;Humidity;BMP_temperature;BMP_pressure;BME280_temperature;BME280_humidity;BME280_pressure;Samples;Min_cycle;Max_cycle;Signal;HPM_P1;HPM_P2
2021/12/22 00:02:18;;;;;;;;;;;21.10;47.20;;;;;;5113654;28;19928;-54
2021/12/22 00:04:47;;;;;;;;;;;21.10;47.20;;;;;;5114668;28;19971;-56
2021/12/22 00:07:14;;;;;;;;;;;21.10;47.20;;;;;;5114995;28;20358;-49
2021/12/22 00:09:41;;;;;;;;;;;21.10;47.20;;;;;;5115001;28;20014;-55
2021/12/22 00:12:09;;;;;;;;;;;21.10;47.20;;;;;;5114648;28;19923;-55
2021/12/22 00:14:37;;;;;;;;;;;21.10;47.20;;;;;;5114618;28;19923;-52
2021/12/22 00:17:04;;;;;;;;;;;21.10;47.20;;;;;;5113281;28;19928;-52
2021/12/22 00:19:31;;;;;;;;;;;21.10;47.20;;;;;;5114863;28;19963;-47
2021/12/22 00:21:58;;;;;;;;;;;21.10;47.30;;;;;;5114122;28;19966;-51
2021/12/22 00:24:25;;;;;;;;;;;21.10;47.30;;;;;;5114486;28;19967;-49
2021/12/22 00:26:53;;;;;;;;;;;21.10;47.30;;;;;;5114336;28;19931;-51
2021/12/22 00:29:21;;;;;;;;;;;21.10;47.30;;;;;;5114409;28;20010;-51
2021/12/22 00:32:07;;;;;;;;;;;21.10;47.30;;;;;;5113310;27;19932;-54
2021/12/22 00:34:35;;;;;;;;;;;21.10;47.30;;;;;;5099211;28;19979;-47
2021/12/22 00:37:02;;;;;;;;;;;21.10;47.30;;;;;;5114597;28;19947;-56
2021/12/22 00:39:29;;;;;;;;;;;21.10;47.30;;;;;;5096243;28;19963;-54
2021/12/22 00:41:56;;;;;;;;;;;21.10;47.40;;;;;;5113821;28;19924;-56
2021/12/22 00:44:25;;;;;;;;;;;21.00;47.30;;;;;;5096254;28;20302;-56
2021/12/22 00:46:52;;;;;;;;;;;21.00;47.30;;;;;;5113197;28;20279;-50
2021/12/22 00:49:19;;;;;;;;;;;21.00;47.30;;;;;;5114188;28;19924;-55
2021/12/22 00:51:46;;;;;;;;;;;21.00;47.30;;;;;;5114467;28;19928;-54
2021/12/22 00:54:13;;;;;;;;;;;21.00;47.50;;;;;;5114251;28;20018;-50
2021/12/22 00:56:40;;;;;;;;;;;21.00;47.40;;;;;;5114411;28;20010;-48
2021/12/22 00:59:07;;;;;;;;;;;21.00;47.30;;;;;;5114406;28;20275;-58
2021/12/22 01:01:34;;;;;;;;;;;21.00;47.40;;;;;;5112957;28;19924;-52
2021/12/22 01:04:02;;;;;;;;;;;21.00;47.40;;;;;;5114238;28;19923;-57
2021/12/22 01:06:29;;;;;;;;;;;21.00;47.40;;;;;;5114259;28;19993;-48
2021/12/22 01:08:57;;;;;;;;;;;21.00;47.40;;;;;;5113993;28;19931;-54
2021/12/22 01:11:24;;;;;;;;;;;21.00;47.40;;;;;;5113992;28;19963;-48
2021/12/22 01:13:51;;;;;;;;;;;21.00;47.40;;;;;;5114264;28;20350;-46
2021/12/22 01:16:22;;;;;;;;;;;20.90;47.30;;;;;;5113247;28;19924;-47
2021/12/22 01:18:49;;;;;;;;;;;20.90;47.40;;;;;;5113898;28;20406;-47
2021/12/22 01:21:37;;;;;;;;;;;20.90;47.40;;;;;;5114073;28;19973;-52
2021/12/22 01:24:28;;;;;;;;;;;20.90;47.40;;;;;;5113625;28;20386;-53
2021/12/22 01:27:04;;;;;;;;;;;20.90;47.40;;;;;;5113807;28;19981;-55
2021/12/22 01:29:32;;;;;;;;;;;20.90;47.40;;;;;;5114158;28;20024;-49
2021/12/22 01:31:59;;;;;;;;;;;20.90;47.40;;;;;;5112587;28;19977;-50
2021/12/22 01:34:27;;;;;;;;;;;20.90;47.40;;;;;;5113630;28;20027;-57
2021/12/22 01:36:54;;;;;;;;;;;20.90;47.40;;;;;;5113732;28;19963;-51
2021/12/22 01:39:21;;;;;;;;;;;20.90;47.40;;;;;;5114575;28;19977;-50
2021/12/22 01:41:48;;;;;;;;;;;20.90;47.40;;;;;;5113686;28;20014;-54
2021/12/22 01:44:31;;;;;;;;;;;20.90;47.40;;;;;;5113970;28;19959;-53
2021/12/22 01:49:49;;;;;;;;;;;20.90;47.50;;;;;;5113648;28;19950;-52
2021/12/22 01:52:18;;;;;;;;;;;20.90;47.50;;;;;;5113947;28;20441;-56
2021/12/22 01:54:50;;;;;;;;;;;20.90;47.50;;;;;;5117617;28;19923;-54
2021/12/22 01:57:17;;;;;;;;;;;20.90;47.50;;;;;;5117284;28;19923;-50
2021/12/22 01:59:46;;;;;;;;;;;20.90;47.50;;;;;;5117207;28;19963;-53
2021/12/22 02:02:14;;;;;;;;;;;20.90;47.50;;;;;;5116422;27;20010;-55
2021/12/22 02:04:41;;;;;;;;;;;20.90;47.50;;;;;;5117343;28;20011;-54
2021/12/22 02:07:09;;;;;;;;;;;20.90;47.50;;;;;;5117886;28;19973;-55
2021/12/22 02:12:47;;;;;;;;;;;20.90;47.50;;;;;;5054436;28;19925;-54
2021/12/22 02:15:15;;;;;;;;;;;20.90;47.50;;;;;;5054329;28;20365;-51
2021/12/22 02:17:42;;;;;;;;;;;20.90;47.50;;;;;;5053092;28;19925;-55
2021/12/22 02:20:11;;;;;;;;;;;20.80;47.40;;;;;;5054147;28;20019;-53
2021/12/22 02:22:41;;;;;;;;;;;20.90;47.50;;;;;;5050170;28;19925;-53
2021/12/22 02:25:15;;;;;;;;;;;20.80;47.40;;;;;;5074316;28;19925;-51
2021/12/22 02:27:53;;;;;;;;;;;20.80;47.40;;;;;;5074021;28;20400;-49
2021/12/22 02:30:26;;;;;;;;;;;20.80;47.40;;;;;;5073974;28;19990;-55
2021/12/22 02:35:28;;;;;;;;;;;20.80;47.50;;;;;;5053825;28;20386;-52
2021/12/22 02:37:55;;;;;;;;;;;20.80;47.50;;;;;;5054143;28;19967;-48
2021/12/22 02:40:27;;;;;;;;;;;20.80;47.50;;;;;;5054675;28;19988;-46
2021/12/22 02:42:54;;;;;;;;;;;20.80;47.50;;;;;;5070097;28;20007;-52
2021/12/22 02:45:21;;;;;;;;;;;20.80;47.50;;;;;;5116653;28;19969;-53
2021/12/22 02:47:51;;;;;;;;;;;20.80;47.50;;;;;;5115090;27;19985;-56
2021/12/22 02:50:18;;;;;;;;;;;20.80;47.50;;;;;;5116595;28;20287;-52
2021/12/22 02:53:01;;;;;;;;;;;20.80;47.50;;;;;;5116049;28;20383;-53
2021/12/22 02:55:32;;;;;;;;;;;20.80;47.50;;;;;;5116183;28;20027;-55
2021/12/22 02:58:03;;;;;;;;;;;20.80;47.50;;;;;;5116490;28;19928;-56
2021/12/22 03:00:47;;;;;;;;;;;20.80;47.50;;;;;;5116432;28;19923;-56
2021/12/22 03:04:06;;;;;;;;;;;20.80;47.50;;;;;;5114812;28;20014;-53
2021/12/22 03:06:09;;;;;;;;;;;20.80;47.50;;;;;;5101697;28;19927;-53
2021/12/22 03:08:36;;;;;;;;;;;20.80;47.50;;;;;;5115890;28;19923;-54
2021/12/22 03:11:03;;;;;;;;;;;20.80;47.50;;;;;;5115882;28;19967;-57
2021/12/22 03:13:32;;;;;;;;;;;20.80;47.50;;;;;;5116973;28;20317;-59
2021/12/22 03:15:59;;;;;;;;;;;20.80;47.60;;;;;;5116081;28;20299;-57
2021/12/22 03:18:26;;;;;;;;;;;20.80;47.50;;;;;;5114733;28;20283;-55
2021/12/22 03:21:02;;;;;;;;;;;20.80;47.60;;;;;;5115972;28;20344;-57
2021/12/22 03:23:29;;;;;;;;;;;20.80;47.60;;;;;;5115278;28;19983;-54
2021/12/22 03:25:58;;;;;;;;;;;20.80;47.60;;;;;;5115857;28;19928;-56
2021/12/22 03:28:25;;;;;;;;;;;20.70;47.50;;;;;;5115775;28;19924;-57
2021/12/22 03:30:53;;;;;;;;;;;20.80;47.60;;;;;;5115789;28;19963;-55
2021/12/22 03:33:20;;;;;;;;;;;20.80;47.60;;;;;;5114699;27;19924;-51
2021/12/22 03:35:47;;;;;;;;;;;20.70;47.50;;;;;;5115546;28;19930;-55
2021/12/22 03:38:14;;;;;;;;;;;20.70;47.50;;;;;;5115611;28;19969;-47
2021/12/22 03:40:41;;;;;;;;;;;20.70;47.60;;;;;;5115282;28;20432;-50
2021/12/22 03:43:08;;;;;;;;;;;20.70;47.50;;;;;;5115521;28;19974;-53
2021/12/22 03:45:35;;;;;;;;;;;20.70;47.50;;;;;;5115185;28;19969;-51
2021/12/22 03:48:02;;;;;;;;;;;20.70;47.50;;;;;;5114315;27;20164;-52
2021/12/22 03:50:29;;;;;;;;;;;20.80;47.60;;;;;;5115371;28;19924;-56
2021/12/22 03:52:56;;;;;;;;;;;20.70;47.50;;;;;;5115095;28;19928;-53
2021/12/22 03:55:23;;;;;;;;;;;20.70;47.60;;;;;;5114980;28;19923;-50
2021/12/22 03:57:52;;;;;;;;;;;20.70;47.60;;;;;;5114913;28;19930;-55
2021/12/22 04:00:19;;;;;;;;;;;20.70;48.20;;;;;;5114842;28;19924;-55
2021/12/22 04:02:46;;;;;;;;;;;20.80;47.60;;;;;;5115158;28;19928;-50
2021/12/22 04:05:13;;;;;;;;;;;20.70;47.60;;;;;;5113517;27;19967;-56
2021/12/22 04:07:40;;;;;;;;;;;20.70;47.60;;;;;;5114989;28;19976;-50
2021/12/22 04:10:19;;;;;;;;;;;20.70;47.60;;;;;;5114993;28;19928;-54
2021/12/22 04:12:51;;;;;;;;;;;20.70;47.60;;;;;;5114733;28;19927;-57
2021/12/22 04:15:18;;;;;;;;;;;20.70;47.60;;;;;;5114591;28;20348;-53
2021/12/22 04:17:46;;;;;;;;;;;20.70;47.60;;;;;;5114322;28;20283;-52
2021/12/22 04:20:13;;;;;;;;;;;20.70;47.60;;;;;;5113554;28;19986;-56
2021/12/22 04:22:41;;;;;;;;;;;20.70;47.60;;;;;;5114254;28;20280;-55
2021/12/22 04:25:09;;;;;;;;;;;20.70;47.60;;;;;;5114776;28;19924;-55
2021/12/22 04:27:36;;;;;;;;;;;20.70;47.60;;;;;;5114696;28;20033;-56
2021/12/22 04:30:05;;;;;;;;;;;20.70;47.60;;;;;;5114416;28;19924;-56
2021/12/22 04:32:31;;;;;;;;;;;20.70;47.60;;;;;;5114746;28;19924;-49
2021/12/22 04:34:58;;;;;;;;;;;20.70;47.60;;;;;;5113158;28;19927;-53
2021/12/22 04:37:25;;;;;;;;;;;20.70;47.60;;;;;;5096356;28;19931;-53
2021/12/22 04:39:52;;;;;;;;;;;20.70;47.60;;;;;;5114608;28;19923;-52
2021/12/22 04:42:19;;;;;;;;;;;20.70;47.60;;;;;;5114252;28;19931;-50
2021/12/22 04:44:46;;;;;;;;;;;20.60;47.60;;;;;;5114262;28;19928;-47
2021/12/22 04:47:13;;;;;;;;;;;20.70;47.60;;;;;;5114133;28;19923;-50
2021/12/22 04:49:40;;;;;;;;;;;20.70;47.60;;;;;;5113145;28;19975;-54
2021/12/22 04:52:10;;;;;;;;;;;20.60;47.60;;;;;;5096330;28;19930;-49
2021/12/22 04:54:48;;;;;;;;;;;20.60;47.60;;;;;;5114130;28;19970;-46
2021/12/22 04:57:16;;;;;;;;;;;20.70;47.60;;;;;;5114446;28;19963;-54
2021/12/22 04:59:42;;;;;;;;;;;20.60;47.60;;;;;;5114394;28;19924;-57
2021/12/22 05:02:10;;;;;;;;;;;20.60;47.60;;;;;;5114096;28;19924;-51
2021/12/22 05:04:37;;;;;;;;;;;20.60;47.60;;;;;;5112973;28;20010;-53
2021/12/22 05:07:04;;;;;;;;;;;20.60;47.60;;;;;;5114244;28;19963;-56
2021/12/22 05:09:31;;;;;;;;;;;20.60;47.60;;;;;;5114342;28;20386;-49
2021/12/22 05:11:58;;;;;;;;;;;20.60;47.60;;;;;;5113956;28;19924;-53
2021/12/22 05:14:25;;;;;;;;;;;20.60;47.60;;;;;;5114274;28;19923;-58
2021/12/22 05:16:58;;;;;;;;;;;20.60;47.60;;;;;;5114242;28;19924;-55
2021/12/22 05:19:26;;;;;;;;;;;20.60;47.60;;;;;;5113312;28;19959;-53
2021/12/22 05:21:53;;;;;;;;;;;20.60;47.60;;;;;;5113610;28;19976;-53
2021/12/22 05:24:21;;;;;;;;;;;20.60;47.60;;;;;;5113680;28;19950;-53
2021/12/22 05:26:47;;;;;;;;;;;20.60;47.60;;;;;;5113732;28;19924;-48
2021/12/22 05:29:15;;;;;;;;;;;20.60;47.60;;;;;;5117606;28;19923;-47
2021/12/22 05:31:42;;;;;;;;;;;20.60;47.60;;;;;;5118059;28;19924;-51
2021/12/22 05:34:09;;;;;;;;;;;20.60;47.60;;;;;;5116569;28;20386;-50
2021/12/22 05:36:36;;;;;;;;;;;20.60;47.60;;;;;;5117672;28;20375;-58
2021/12/22 05:39:03;;;;;;;;;;;20.60;47.60;;;;;;5117667;28;19924;-48
2021/12/22 05:41:30;;;;;;;;;;;20.60;47.60;;;;;;5117616;28;19923;-55
2021/12/22 05:43:57;;;;;;;;;;;20.60;47.60;;;;;;5117565;28;19928;-57
2021/12/22 05:46:24;;;;;;;;;;;20.60;47.60;;;;;;5117491;28;19924;-55
2021/12/22 05:48:51;;;;;;;;;;;20.60;47.60;;;;;;5117378;28;20401;-57
2021/12/22 05:51:18;;;;;;;;;;;20.60;47.60;;;;;;5116521;28;19924;-58
2021/12/22 05:53:45;;;;;;;;;;;20.60;47.60;;;;;;5117189;28;20014;-55
2021/12/22 05:56:12;;;;;;;;;;;20.60;47.60;;;;;;5117282;28;20421;-56
2021/12/22 05:58:39;;;;;;;;;;;20.60;47.60;;;;;;5117274;28;19949;-54
2021/12/22 06:01:06;;;;;;;;;;;20.60;47.60;;;;;;5117227;28;20023;-58
2021/12/22 06:03:33;;;;;;;;;;;20.60;47.60;;;;;;5117390;28;19924;-52
2021/12/22 06:06:00;;;;;;;;;;;20.60;47.60;;;;;;5116202;27;19924;-58
2021/12/22 06:08:27;;;;;;;;;;;20.60;47.60;;;;;;5116940;28;19953;-55
2021/12/22 06:10:54;;;;;;;;;;;20.60;47.60;;;;;;5117276;28;20011;-53
2021/12/22 06:13:21;;;;;;;;;;;20.60;47.60;;;;;;5116943;28;20401;-56
2021/12/22 06:15:48;;;;;;;;;;;20.60;47.60;;;;;;5116977;28;19970;-55
2021/12/22 06:18:15;;;;;;;;;;;20.60;47.60;;;;;;5116812;28;20298;-51
2021/12/22 06:20:42;;;;;;;;;;;20.60;47.60;;;;;;5115809;27;20331;-57
2021/12/22 06:23:09;;;;;;;;;;;20.60;47.60;;;;;;5116507;28;19936;-52
2021/12/22 06:25:35;;;;;;;;;;;20.60;47.60;;;;;;5117072;28;19966;-52
2021/12/22 06:28:03;;;;;;;;;;;20.60;47.70;;;;;;5116600;28;19967;-52
2021/12/22 06:30:30;;;;;;;;;;;20.60;47.60;;;;;;5116614;28;20448;-49
2021/12/22 06:32:57;;;;;;;;;;;20.60;47.60;;;;;;5116585;28;20022;-56
2021/12/22 06:35:24;;;;;;;;;;;20.60;47.70;;;;;;5115469;27;19924;-57
2021/12/22 06:37:52;;;;;;;;;;;20.60;47.70;;;;;;5116531;28;19924;-54
2021/12/22 06:40:19;;;;;;;;;;;20.60;47.70;;;;;;5115620;28;19924;-53
2021/12/22 06:42:46;;;;;;;;;;;20.60;47.70;;;;;;5116683;28;19924;-51
2021/12/22 06:45:13;;;;;;;;;;;20.50;47.60;;;;;;5116399;28;19924;-58
2021/12/22 06:47:41;;;;;;;;;;;20.50;47.60;;;;;;5116463;28;19930;-48
2021/12/22 06:50:09;;;;;;;;;;;20.50;47.60;;;;;;5115114;28;20444;-57
2021/12/22 06:52:36;;;;;;;;;;;20.50;47.60;;;;;;5115949;28;19931;-52
2021/12/22 06:55:03;;;;;;;;;;;20.50;47.60;;;;;;5116496;28;20426;-50
2021/12/22 06:57:32;;;;;;;;;;;20.60;47.70;;;;;;5116083;28;20006;-49
2021/12/22 06:59:59;;;;;;;;;;;20.50;47.60;;;;;;5116332;28;19977;-53
2021/12/22 07:02:26;;;;;;;;;;;20.50;47.60;;;;;;5115980;28;20031;-50
2021/12/22 07:04:54;;;;;;;;;;;20.50;47.60;;;;;;5115398;28;19982;-55
2021/12/22 07:07:20;;;;;;;;;;;20.50;47.60;;;;;;5115445;28;20027;-58
2021/12/22 07:09:47;;;;;;;;;;;20.50;47.60;;;;;;5115808;28;20011;-53
2021/12/22 07:12:15;;;;;;;;;;;20.50;47.60;;;;;;5116125;28;19924;-50
2021/12/22 07:14:41;;;;;;;;;;;20.50;47.60;;;;;;5116108;28;19989;-55
2021/12/22 07:17:09;;;;;;;;;;;20.50;47.60;;;;;;5115656;28;20064;-52
2021/12/22 07:19:36;;;;;;;;;;;20.50;47.70;;;;;;5115951;28;20378;-55
2021/12/22 07:22:03;;;;;;;;;;;20.50;47.70;;;;;;5114290;28;20264;-49
2021/12/22 07:24:30;;;;;;;;;;;20.50;47.70;;;;;;5115498;28;19982;-56
2021/12/22 07:26:57;;;;;;;;;;;20.50;47.70;;;;;;5115715;28;20385;-51
2021/12/22 07:29:24;;;;;;;;;;;20.50;47.70;;;;;;5115337;28;19924;-53
2021/12/22 07:31:51;;;;;;;;;;;20.50;47.80;;;;;;5115300;28;19963;-55
2021/12/22 07:34:24;;;;;;;;;;;20.50;47.80;;;;;;5115226;28;19984;-54
2021/12/22 07:37:15;;;;;;;;;;;20.50;47.80;;;;;;5114403;28;19923;-48
2021/12/22 07:39:42;;;;;;;;;;;20.50;47.80;;;;;;5116149;28;19924;-50
2021/12/22 07:42:09;;;;;;;;;;;20.50;47.80;;;;;;5115138;28;19928;-56
2021/12/22 07:44:36;;;;;;;;;;;20.50;47.80;;;;;;5115203;28;19973;-57
2021/12/22 07:47:03;;;;;;;;;;;20.50;47.80;;;;;;5115410;28;20014;-56
2021/12/22 07:49:30;;;;;;;;;;;20.50;47.80;;;;;;5114970;28;19937;-58
2021/12/22 07:51:57;;;;;;;;;;;20.50;47.80;;;;;;5113537;28;19953;-52
2021/12/22 07:54:24;;;;;;;;;;;20.60;47.80;;;;;;5114902;28;19971;-58
2021/12/22 07:56:51;;;;;;;;;;;20.60;47.80;;;;;;5115244;28;19928;-58
2021/12/22 07:59:18;;;;;;;;;;;20.60;47.80;;;;;;5115760;28;19967;-49
2021/12/22 08:01:44;;;;;;;;;;;20.60;47.80;;;;;;5114863;28;20474;-58
2021/12/22 08:04:12;;;;;;;;;;;20.60;47.80;;;;;;5114983;28;19923;-54
2021/12/22 08:06:39;;;;;;;;;;;20.60;47.80;;;;;;5114048;28;19977;-49
2021/12/22 08:09:06;;;;;;;;;;;20.60;47.80;;;;;;5115053;28;19931;-51
2021/12/22 08:11:34;;;;;;;;;;;20.60;47.80;;;;;;5115278;28;19924;-58
2021/12/22 08:14:01;;;;;;;;;;;20.60;47.80;;;;;;5114981;28;19963;-57
2021/12/22 08:16:30;;;;;;;;;;;20.60;47.70;;;;;;5115828;28;20278;-56
2021/12/22 08:18:57;;;;;;;;;;;20.60;47.70;;;;;;5115040;28;19959;-50
2021/12/22 08:21:24;;;;;;;;;;;20.60;47.70;;;;;;5113891;28;19932;-51
2021/12/22 08:23:51;;;;;;;;;;;20.60;47.60;;;;;;5114524;28;19924;-52
2021/12/22 08:26:18;;;;;;;;;;;20.60;47.60;;;;;;5114935;28;20348;-49
2021/12/22 08:28:49;;;;;;;;;;;20.60;47.60;;;;;;5115155;28;19931;-54
2021/12/22 08:31:16;;;;;;;;;;;20.60;47.60;;;;;;5114447;28;19951;-48
2021/12/22 08:33:46;;;;;;;;;;;20.60;47.50;;;;;;5114263;28;20379;-51
2021/12/22 08:39:15;;;;;;;;;;;20.60;47.40;;;;;;5031539;28;19925;-58
2021/12/22 08:41:47;;;;;;;;;;;20.60;47.40;;;;;;5031638;28;19929;-49
2021/12/22 08:44:16;;;;;;;;;;;20.60;47.40;;;;;;5031615;28;19925;-56
2021/12/22 08:46:46;;;;;;;;;;;20.60;47.40;;;;;;5031702;28;20383;-53
2021/12/22 08:49:14;;;;;;;;;;;20.60;47.30;;;;;;5031648;28;20274;-54
2021/12/22 08:51:42;;;;;;;;;;;20.70;47.40;;;;;;5035917;28;19925;-59
2021/12/22 08:54:09;;;;;;;;;;;20.70;47.40;;;;;;5051496;28;19986;-56
2021/12/22 08:56:38;;;;;;;;;;;20.70;47.30;;;;;;5051385;28;20087;-51
2021/12/22 08:59:06;;;;;;;;;;;20.70;47.30;;;;;;5034937;28;20434;-50
2021/12/22 09:01:34;;;;;;;;;;;20.70;47.30;;;;;;5051453;28;19928;-49
2021/12/22 09:04:02;;;;;;;;;;;20.70;47.20;;;;;;5055418;28;20385;-54
2021/12/22 09:06:29;;;;;;;;;;;20.70;47.20;;;;;;5054067;28;19933;-49
2021/12/22 09:08:58;;;;;;;;;;;20.70;47.20;;;;;;5055470;28;20606;-53
2021/12/22 09:11:25;;;;;;;;;;;20.70;47.20;;;;;;5055540;28;19964;-50
2021/12/22 09:13:52;;;;;;;;;;;20.70;47.20;;;;;;5103036;28;20006;-54
2021/12/22 09:16:19;;;;;;;;;;;20.80;47.20;;;;;;5118436;28;19923;-55
2021/12/22 09:18:47;;;;;;;;;;;20.80;47.20;;;;;;5118364;28;19934;-56
2021/12/22 09:21:16;;;;;;;;;;;20.80;47.20;;;;;;5119346;27;19927;-50
2021/12/22 09:23:43;;;;;;;;;;;20.80;47.10;;;;;;5116474;27;19949;-52
2021/12/22 09:26:10;;;;;;;;;;;20.80;47.00;;;;;;5117855;28;19924;-49
2021/12/22 09:28:37;;;;;;;;;;;20.80;47.00;;;;;;5117705;28;19924;-58
2021/12/22 09:31:06;;;;;;;;;;;20.80;47.00;;;;;;5118129;28;19945;-53
2021/12/22 09:33:34;;;;;;;;;;;20.80;46.90;;;;;;5117559;28;19923;-53
2021/12/22 09:36:01;;;;;;;;;;;20.80;46.90;;;;;;5117701;28;19970;-56
2021/12/22 09:38:28;;;;;;;;;;;20.90;47.00;;;;;;5116217;27;19967;-52
2021/12/22 09:41:01;;;;;;;;;;;20.90;47.00;;;;;;5117792;28;20287;-53
2021/12/22 09:43:29;;;;;;;;;;;20.90;46.90;;;;;;5117534;28;19930;-54
2021/12/22 09:46:01;;;;;;;;;;;20.90;46.90;;;;;;5117731;28;19930;-53
2021/12/22 09:48:48;;;;;;;;;;;20.90;46.80;;;;;;5117754;28;19924;-53
2021/12/22 09:53:46;;;;;;;;;;;20.90;46.80;;;;;;5115864;28;19970;-53
2021/12/22 09:56:14;;;;;;;;;;;20.90;46.70;;;;;;5117646;28;19924;-52
2021/12/22 09:58:43;;;;;;;;;;;21.00;46.80;;;;;;5117239;28;19969;-56
2021/12/22 10:01:11;;;;;;;;;;;21.00;46.80;;;;;;5117516;28;20283;-52
2021/12/22 10:03:39;;;;;;;;;;;21.00;46.70;;;;;;5117386;28;19924;-50
2021/12/22 10:06:06;;;;;;;;;;;21.00;46.70;;;;;;5118343;28;20006;-52
2021/12/22 10:08:36;;;;;;;;;;;21.00;46.70;;;;;;5116095;27;19977;-55
2021/12/22 10:11:10;;;;;;;;;;;21.00;46.60;;;;;;5117458;28;20324;-58
2021/12/22 10:13:44;;;;;;;;;;;21.10;46.70;;;;;;5116886;28;20391;-51
2021/12/22 10:16:13;;;;;;;;;;;21.10;46.60;;;;;;5117223;28;20000;-53
2021/12/22 10:18:40;;;;;;;;;;;21.10;46.60;;;;;;5117218;28;19986;-56
2021/12/22 10:21:12;;;;;;;;;;;21.10;46.60;;;;;;5117046;28;20018;-58
2021/12/22 10:23:46;;;;;;;;;;;21.10;46.50;;;;;;5115339;27;20340;-52
2021/12/22 10:26:18;;;;;;;;;;;21.10;46.50;;;;;;5116789;28;19927;-51
2021/12/22 10:28:47;;;;;;;;;;;21.10;46.50;;;;;;5116702;28;19924;-54
2021/12/22 10:31:15;;;;;;;;;;;21.20;46.50;;;;;;5116980;28;19988;-51
2021/12/22 10:33:42;;;;;;;;;;;21.20;46.50;;;;;;5116822;28;20297;-56
2021/12/22 10:36:15;;;;;;;;;;;21.20;46.40;;;;;;5116834;28;20006;-56
2021/12/22 10:38:48;;;;;;;;;;;21.20;46.40;;;;;;5115291;27;19924;-57
2021/12/22 10:41:16;;;;;;;;;;;21.20;46.40;;;;;;5098480;28;19924;-56
2021/12/22 10:43:47;;;;;;;;;;;21.20;46.30;;;;;;5117283;28;19977;-57
2021/12/22 10:46:22;;;;;;;;;;;21.20;46.30;;;;;;5116383;28;19930;-55
2021/12/22 10:51:36;;;;;;;;;;;21.30;46.20;;;;;;5116647;28;19924;-52
2021/12/22 10:54:07;;;;;;;;;;;21.30;46.20;;;;;;5115197;28;20322;-53
2021/12/22 10:56:36;;;;;;;;;;;21.30;46.20;;;;;;5116150;28;19931;-55
2021/12/22 10:59:03;;;;;;;;;;;21.30;46.20;;;;;;5116312;28;20337;-53
2021/12/22 11:01:34;;;;;;;;;;;21.30;46.10;;;;;;5116373;28;19930;-56
2021/12/22 11:04:05;;;;;;;;;;;21.30;46.70;;;;;;5116297;28;19927;-57
2021/12/22 11:06:34;;;;;;;;;;;21.30;46.10;;;;;;5116309;28;19924;-50
2021/12/22 11:09:04;;;;;;;;;;;21.30;46.10;;;;;;5114922;27;20274;-56
2021/12/22 11:11:36;;;;;;;;;;;21.30;46.00;;;;;;5116256;28;19998;-57
2021/12/22 11:14:06;;;;;;;;;;;21.30;46.00;;;;;;5116152;28;19974;-55
2021/12/22 11:16:48;;;;;;;;;;;21.30;46.00;;;;;;5115802;28;19950;-49
2021/12/22 11:19:15;;;;;;;;;;;21.30;46.00;;;;;;5116109;28;19962;-49
2021/12/22 11:22:05;;;;;;;;;;;21.40;46.00;;;;;;5115606;28;19924;-48
2021/12/22 11:24:34;;;;;;;;;;;21.30;45.90;;;;;;5088838;28;19973;-52
2021/12/22 11:27:02;;;;;;;;;;;21.40;46.00;;;;;;5094826;28;19999;-52
2021/12/22 11:29:29;;;;;;;;;;;21.40;46.00;;;;;;5095416;28;19978;-49
2021/12/22 11:31:56;;;;;;;;;;;21.40;46.00;;;;;;5095498;28;19924;-51
2021/12/22 11:34:25;;;;;;;;;;;21.40;46.00;;;;;;5094975;28;19931;-54
2021/12/22 11:36:52;;;;;;;;;;;21.40;45.90;;;;;;5095068;28;19931;-55
2021/12/22 11:39:19;;;;;;;;;;;21.40;45.90;;;;;;5081218;28;19970;-58
2021/12/22 11:41:56;;;;;;;;;;;21.40;45.90;;;;;;5075893;28;20298;-55
2021/12/22 11:44:24;;;;;;;;;;;21.40;45.90;;;;;;5074698;28;20007;-54
2021/12/22 11:46:56;;;;;;;;;;;21.40;45.80;;;;;;5074591;28;19925;-47
2021/12/22 11:49:24;;;;;;;;;;;21.40;45.80;;;;;;5074463;28;19930;-53
2021/12/22 11:51:51;;;;;;;;;;;21.40;45.80;;;;;;5074525;28;19974;-51
2021/12/22 11:54:25;;;;;;;;;;;21.40;45.80;;;;;;5073178;28;19982;-48
2021/12/22 11:56:53;;;;;;;;;;;21.40;45.80;;;;;;5074790;28;19991;-47
2021/12/22 11:59:28;;;;;;;;;;;21.50;45.80;;;;;;5074393;28;19950;-53
2021/12/22 12:02:14;;;;;;;;;;;21.50;45.80;;;;;;5074657;28;19954;-47
2021/12/22 12:04:41;;;;;;;;;;;21.50;45.70;;;;;;5074120;28;19925;-52
2021/12/22 12:07:08;;;;;;;;;;;21.50;45.70;;;;;;5074251;28;20449;-51
2021/12/22 12:09:42;;;;;;;;;;;21.50;45.70;;;;;;5073335;28;19928;-49
2021/12/22 12:12:30;;;;;;;;;;;21.50;45.70;;;;;;5074741;28;19924;-51
2021/12/22 12:15:09;;;;;;;;;;;21.50;45.60;;;;;;5074047;28;19925;-50
2021/12/22 12:23:29;;;;;;;;;;;21.50;45.60;;;;;;5096957;28;20006;-52
2021/12/22 12:26:02;;;;;;;;;;;21.50;45.60;;;;;;5114528;28;19924;-57
2021/12/22 12:28:30;;;;;;;;;;;21.60;45.60;;;;;;5114870;28;19931;-54
2021/12/22 12:30:58;;;;;;;;;;;21.60;45.60;;;;;;5114368;28;20379;-57
2021/12/22 12:33:30;;;;;;;;;;;21.60;45.50;;;;;;5114643;28;19931;-53
2021/12/22 12:36:05;;;;;;;;;;;21.60;46.10;;;;;;5114628;28;20305;-53
2021/12/22 12:38:44;;;;;;;;;;;21.60;45.50;;;;;;5112664;28;20328;-55
2021/12/22 12:41:13;;;;;;;;;;;21.60;45.50;;;;;;5114263;28;19967;-56
2021/12/22 12:43:40;;;;;;;;;;;21.60;45.50;;;;;;5114563;28;19923;-56
2021/12/22 12:46:19;;;;;;;;;;;21.60;45.50;;;;;;5114249;28;20375;-55
2021/12/22 12:48:46;;;;;;;;;;;21.60;45.50;;;;;;5114455;28;19924;-53
2021/12/22 12:51:13;;;;;;;;;;;21.60;45.40;;;;;;5114488;28;19970;-51
2021/12/22 12:53:41;;;;;;;;;;;21.60;45.40;;;;;;5112858;28;20014;-58
2021/12/22 12:56:09;;;;;;;;;;;21.70;45.50;;;;;;5114413;28;19981;-51
2021/12/22 12:58:52;;;;;;;;;;;21.70;45.50;;;;;;5114392;28;20015;-54
2021/12/22 13:01:39;;;;;;;;;;;21.70;45.40;;;;;;5114351;28;20295;-51
2021/12/22 13:04:27;;;;;;;;;;;21.70;45.40;;;;;;5113966;28;19931;-46
2021/12/22 13:06:55;;;;;;;;;;;21.70;45.40;;;;;;5114038;28;19924;-49
2021/12/22 13:09:26;;;;;;;;;;;21.70;45.40;;;;;;5112612;28;19923;-53
2021/12/22 13:11:59;;;;;;;;;;;21.70;45.40;;;;;;5113968;28;19924;-52
2021/12/22 13:17:23;;;;;;;;;;;21.70;45.40;;;;;;5113878;28;19928;-57
2021/12/22 13:19:55;;;;;;;;;;;21.70;45.30;;;;;;5114178;28;19924;-56
2021/12/22 13:22:28;;;;;;;;;;;21.70;45.30;;;;;;5113713;28;19924;-56
2021/12/22 13:25:12;;;;;;;;;;;21.80;45.40;;;;;;5113168;28;19924;-49
2021/12/22 13:27:40;;;;;;;;;;;21.80;45.40;;;;;;5114120;28;19977;-53
2021/12/22 13:30:07;;;;;;;;;;;21.80;45.40;;;;;;5114083;28;20291;-47
2021/12/22 13:32:36;;;;;;;;;;;21.80;45.40;;;;;;5113797;28;19931;-48
2021/12/22 13:35:03;;;;;;;;;;;21.80;45.40;;;;;;5113662;28;19969;-56
2021/12/22 13:37:31;;;;;;;;;;;21.80;45.40;;;;;;5114024;28;19977;-48
2021/12/22 13:39:58;;;;;;;;;;;21.80;45.40;;;;;;5113001;28;19970;-49
2021/12/22 13:42:25;;;;;;;;;;;21.80;45.40;;;;;;5114019;28;19967;-48
2021/12/22 13:44:51;;;;;;;;;;;21.80;45.40;;;;;;5113668;28;20015;-48
2021/12/22 13:47:18;;;;;;;;;;;21.80;45.40;;;;;;5113655;28;19928;-55
2021/12/22 13:49:48;;;;;;;;;;;21.80;45.40;;;;;;5116801;28;20341;-55
2021/12/22 13:52:15;;;;;;;;;;;21.80;45.40;;;;;;5099184;28;19924;-49
2021/12/22 13:54:42;;;;;;;;;;;21.80;45.40;;;;;;5116596;27;20386;-52
2021/12/22 13:57:09;;;;;;;;;;;21.80;45.40;;;;;;5117649;28;20333;-58
2021/12/22 13:59:37;;;;;;;;;;;21.80;45.40;;;;;;5117309;28;19928;-54
2021/12/22 14:02:05;;;;;;;;;;;21.80;45.40;;;;;;5117314;28;19932;-53
2021/12/22 14:04:36;;;;;;;;;;;21.80;45.40;;;;;;5117072;28;20408;-52
2021/12/22 14:07:23;;;;;;;;;;;21.80;45.40;;;;;;5117544;28;20297;-49
2021/12/22 14:09:52;;;;;;;;;;;21.80;45.40;;;;;;5116465;28;19935;-55
2021/12/22 14:12:22;;;;;;;;;;;21.80;45.50;;;;;;5117082;28;20298;-54
2021/12/22 14:14:50;;;;;;;;;;;21.80;45.50;;;;;;5117320;28;20015;-58
2021/12/22 14:17:19;;;;;;;;;;;21.80;45.60;;;;;;5117003;28;20018;-51
2021/12/22 14:19:49;;;;;;;;;;;21.80;45.60;;;;;;5116941;28;19923;-54
2021/12/22 14:22:16;;;;;;;;;;;21.80;45.60;;;;;;5116427;28;20411;-50
2021/12/22 14:24:46;;;;;;;;;;;21.70;45.50;;;;;;5115861;27;19924;-57
2021/12/22 14:27:15;;;;;;;;;;;21.70;45.50;;;;;;5117088;28;19931;-54
2021/12/22 14:29:46;;;;;;;;;;;21.70;45.60;;;;;;5116669;28;19979;-53
2021/12/22 14:32:21;;;;;;;;;;;21.70;45.60;;;;;;5116704;28;20465;-50
2021/12/22 14:34:59;;;;;;;;;;;21.70;45.60;;;;;;5116581;28;20458;-48
2021/12/22 14:37:29;;;;;;;;;;;21.70;45.60;;;;;;5116938;28;19923;-52
2021/12/22 14:39:57;;;;;;;;;;;21.70;45.70;;;;;;5115759;27;19924;-54
2021/12/22 14:42:27;;;;;;;;;;;21.70;45.70;;;;;;5116789;28;19924;-47
2021/12/22 14:45:27;;;;;;;;;;;21.70;45.80;;;;;;5116744;28;20372;-54
2021/12/22 14:48:02;;;;;;;;;;;21.70;46.30;;;;;;5097449;28;19955;-57
2021/12/22 14:50:29;;;;;;;;;;;21.70;45.80;;;;;;5116257;28;19923;-56
2021/12/22 14:52:57;;;;;;;;;;;21.70;45.80;;;;;;5116090;28;19970;-53
2021/12/22 14:55:39;;;;;;;;;;;21.70;45.80;;;;;;5115695;27;19923;-55